createdAt,value
2023-04-15T00:01:01.561Z,3.70
2023-04-15T00:03:30.241Z,3.00
2023-04-15T00:06:00.132Z,1.90
2023-04-15T00:08:30.191Z,2.90
2023-04-15T00:11:03.142Z,2.20
2023-04-15T00:13:34.179Z,2.10
2023-04-15T00:16:02.815Z,1.90
2023-04-15T00:18:31.948Z,1.40
2023-04-15T00:21:00.430Z,1.40
2023-04-15T00:23:29.090Z,1.70
2023-04-15T00:25:57.475Z,1.60
2023-04-15T00:28:25.741Z,2.30
2023-04-15T00:30:54.133Z,2.50
2023-04-15T00:33:22.432Z,1.60
2023-04-15T00:35:51.067Z,1.20
2023-04-15T00:38:19.797Z,1.30
2023-04-15T00:40:48.489Z,1.40
2023-04-15T00:43:17.845Z,1.50
2023-04-15T00:45:47.410Z,1.40
2023-04-15T00:48:16.569Z,1.30
2023-04-15T00:50:44.937Z,1.70
2023-04-15T00:53:13.418Z,1.30
2023-04-15T00:55:42.820Z,1.50
2023-04-15T00:58:11.332Z,1.40
2023-04-15T01:00:41.030Z,1.20
2023-04-15T01:03:10.321Z,1.70
2023-04-15T01:05:39.547Z,1.50
2023-04-15T01:08:07.910Z,1.40
2023-04-15T01:10:36.142Z,1.40
2023-04-15T01:13:04.474Z,1.50
2023-04-15T01:15:32.933Z,1.40
2023-04-15T01:18:03.360Z,1.50
2023-04-15T01:20:32.263Z,2.10
2023-04-15T01:23:01.536Z,1.70
2023-04-15T01:25:33.460Z,2.70
2023-04-15T01:28:02.407Z,2.10
2023-04-15T01:30:34.948Z,2.00
2023-04-15T01:33:03.340Z,1.30
2023-04-15T01:35:32.389Z,1.30
2023-04-15T01:38:07.599Z,1.30
2023-04-15T01:40:36.000Z,1.20
2023-04-15T01:43:04.257Z,1.60
2023-04-15T01:45:32.442Z,1.60
2023-04-15T01:48:01.072Z,0.80
2023-04-15T01:50:29.511Z,1.00
2023-04-15T01:52:57.834Z,1.90
2023-04-15T01:55:26.380Z,1.20
2023-04-15T01:57:55.001Z,1.20
2023-04-15T02:00:24.190Z,1.30
2023-04-15T02:02:54.265Z,1.40
2023-04-15T02:05:22.889Z,1.00
2023-04-15T02:07:51.566Z,1.10
2023-04-15T02:10:19.916Z,1.30
2023-04-15T02:12:48.031Z,1.20
2023-04-15T02:15:16.699Z,1.20
2023-04-15T02:17:46.231Z,1.20
2023-04-15T02:20:19.400Z,1.60
2023-04-15T02:22:48.599Z,1.50
2023-04-15T02:25:17.406Z,1.20
2023-04-15T02:27:45.872Z,1.30
2023-04-15T02:30:14.290Z,1.60
2023-04-15T02:32:45.456Z,1.20
2023-04-15T02:35:14.378Z,1.30
2023-04-15T02:37:44.023Z,1.80
2023-04-15T02:40:13.408Z,1.80
2023-04-15T02:42:43.383Z,2.00
2023-04-15T02:45:13.901Z,1.80
2023-04-15T02:47:43.457Z,1.70
2023-04-15T02:50:13.394Z,1.80
2023-04-15T02:52:44.954Z,2.00
2023-04-15T02:55:13.536Z,2.20
2023-04-15T02:57:41.992Z,2.30
2023-04-15T03:00:12.374Z,3.80
2023-04-15T03:02:43.576Z,2.20
2023-04-15T03:05:13.915Z,2.30
2023-04-15T03:07:46.488Z,2.40
2023-04-15T03:10:15.826Z,1.20
2023-04-15T03:12:44.009Z,1.70
2023-04-15T03:15:15.814Z,1.20
2023-04-15T03:17:46.682Z,1.70
2023-04-15T03:20:15.835Z,1.00
2023-04-15T03:22:44.337Z,1.20
2023-04-15T03:25:12.630Z,0.90
2023-04-15T03:27:42.064Z,0.90
2023-04-15T03:30:11.227Z,1.00
2023-04-15T03:32:40.427Z,1.20
2023-04-15T03:35:09.849Z,1.20
2023-04-15T03:37:38.209Z,1.00
2023-04-15T03:40:07.495Z,1.20
2023-04-15T03:42:35.788Z,1.20
2023-04-15T03:45:04.789Z,1.30
2023-04-15T03:47:33.097Z,1.20
2023-04-15T03:50:01.359Z,1.80
2023-04-15T03:52:29.532Z,1.90
2023-04-15T03:54:58.000Z,3.40
2023-04-15T03:57:26.723Z,4.20
2023-04-15T03:59:54.983Z,4.30
2023-04-15T04:02:23.712Z,3.10
2023-04-15T04:04:52.265Z,2.70
2023-04-15T04:07:20.521Z,3.00
2023-04-15T04:09:48.929Z,3.50
2023-04-15T04:12:17.171Z,3.10
2023-04-15T04:14:45.963Z,3.40
2023-04-15T04:17:14.173Z,2.80
2023-04-15T04:19:42.423Z,3.00
2023-04-15T04:22:10.827Z,2.70
2023-04-15T04:24:39.177Z,2.30
2023-04-15T04:27:07.770Z,2.10
2023-04-15T04:29:36.360Z,1.80
2023-04-15T04:32:05.071Z,1.10
2023-04-15T04:34:33.350Z,1.50
2023-04-15T04:37:01.587Z,2.90
2023-04-15T04:39:29.772Z,3.40
2023-04-15T04:41:57.866Z,3.90
2023-04-15T04:44:26.523Z,4.00
2023-04-15T04:46:54.834Z,4.60
2023-04-15T04:49:23.392Z,4.80
2023-04-15T04:51:52.497Z,4.10
2023-04-15T04:54:21.489Z,4.10
2023-04-15T04:56:49.653Z,3.30
2023-04-15T04:59:19.396Z,3.50
2023-04-15T05:01:48.308Z,3.30
2023-04-15T05:04:17.045Z,2.80
2023-04-15T05:06:45.547Z,2.20
2023-04-15T05:09:13.711Z,1.90
2023-04-15T05:11:42.123Z,2.00
2023-04-15T05:14:10.475Z,2.40
2023-04-15T05:16:38.802Z,1.40
2023-04-15T05:19:07.888Z,1.50
2023-04-15T05:21:38.253Z,2.00
2023-04-15T05:24:07.791Z,3.30
2023-04-15T05:26:36.087Z,6.00
2023-04-15T05:29:04.613Z,5.90
2023-04-15T05:31:33.218Z,2.80
2023-04-15T05:34:01.816Z,2.00
2023-04-15T05:36:30.029Z,2.60
2023-04-15T05:38:58.295Z,3.40
2023-04-15T05:41:26.658Z,4.00
2023-04-15T05:43:55.055Z,2.20
2023-04-15T05:46:23.392Z,3.50
2023-04-15T05:48:51.847Z,2.80
2023-04-15T05:51:20.383Z,2.10
2023-04-15T05:53:48.763Z,1.60
2023-04-15T05:56:17.358Z,1.70
2023-04-15T05:58:45.529Z,2.10
2023-04-15T06:01:13.753Z,2.70
2023-04-15T06:03:43.131Z,2.00
2023-04-15T06:06:11.488Z,2.00
2023-04-15T06:08:39.772Z,1.60
2023-04-15T06:11:08.040Z,2.40
2023-04-15T06:13:36.376Z,3.20
2023-04-15T06:16:05.467Z,1.80
2023-04-15T06:18:33.702Z,2.10
2023-04-15T06:21:02.081Z,2.00
2023-04-15T06:23:30.561Z,1.30
2023-04-15T06:25:58.868Z,1.90
2023-04-15T06:28:27.012Z,2.20
2023-04-15T06:30:55.148Z,1.90
2023-04-15T06:33:23.568Z,1.30
2023-04-15T06:35:51.741Z,1.60
2023-04-15T06:38:20.073Z,2.30
2023-04-15T06:40:48.398Z,3.10
2023-04-15T06:43:16.619Z,2.70
2023-04-15T06:45:44.889Z,3.00
2023-04-15T06:48:13.449Z,3.00
2023-04-15T06:50:41.928Z,2.40
2023-04-15T06:53:10.200Z,1.80
2023-04-15T06:55:38.463Z,2.00
2023-04-15T06:58:06.571Z,1.70
2023-04-15T07:00:34.725Z,2.30
2023-04-15T07:03:03.968Z,2.50
2023-04-15T07:05:32.611Z,3.50
2023-04-15T07:08:01.353Z,9.60
2023-04-15T07:10:30.198Z,5.50
2023-04-15T07:12:58.577Z,3.80
2023-04-15T07:15:26.769Z,6.70
2023-04-15T07:17:55.398Z,4.60
2023-04-15T07:20:23.750Z,5.10
2023-04-15T07:22:52.006Z,7.70
2023-04-15T07:25:20.785Z,7.80
2023-04-15T07:27:49.077Z,7.40
2023-04-15T07:30:17.442Z,10.70
2023-04-15T07:32:45.895Z,11.00
2023-04-15T07:35:14.919Z,8.10
2023-04-15T07:37:43.710Z,6.10
2023-04-15T07:40:12.129Z,9.40
2023-04-15T07:42:41.451Z,8.40
2023-04-15T07:45:10.549Z,5.20
2023-04-15T07:47:38.842Z,6.20
2023-04-15T07:50:07.534Z,4.10
2023-04-15T07:52:39.335Z,1.90
2023-04-15T07:55:11.545Z,2.80
2023-04-15T07:57:40.171Z,4.20
2023-04-15T08:00:09.302Z,5.50
2023-04-15T08:02:43.735Z,4.50
2023-04-15T08:05:12.210Z,15.60
2023-04-15T08:07:41.095Z,11.20
2023-04-15T08:10:10.171Z,4.00
2023-04-15T08:12:38.655Z,3.40
2023-04-15T08:15:08.473Z,3.30
2023-04-15T08:17:36.848Z,4.30
2023-04-15T08:20:06.175Z,4.40
2023-04-15T08:22:34.635Z,3.70
2023-04-15T08:25:03.844Z,3.90
2023-04-15T08:27:32.240Z,4.10
2023-04-15T08:30:02.153Z,4.30
2023-04-15T08:32:32.268Z,4.00
2023-04-15T08:35:00.834Z,4.40
2023-04-15T08:37:29.294Z,5.50
2023-04-15T08:39:57.529Z,2.00
2023-04-15T08:42:32.864Z,2.90
2023-04-15T08:45:02.192Z,1.20
2023-04-15T08:47:34.639Z,1.80
2023-04-15T08:50:04.640Z,1.30
2023-04-15T08:52:33.353Z,2.10
2023-04-15T08:55:03.804Z,1.30
2023-04-15T08:57:33.624Z,1.90
2023-04-15T09:00:05.706Z,2.10
2023-04-15T09:02:34.666Z,2.50
2023-04-15T09:05:05.173Z,2.80
2023-04-15T09:07:36.920Z,2.70
2023-04-15T09:10:05.718Z,1.90
2023-04-15T09:12:37.703Z,1.80
2023-04-15T09:15:06.965Z,2.10
2023-04-15T09:17:35.269Z,1.10
2023-04-15T09:20:15.297Z,1.10
2023-04-15T09:22:45.644Z,1.20
2023-04-15T09:25:22.925Z,1.50
2023-04-15T09:27:58.409Z,1.50
2023-04-15T09:30:28.601Z,1.70
2023-04-15T09:33:02.548Z,1.30
2023-04-15T09:35:31.239Z,1.10
2023-04-15T09:38:08.289Z,1.20
2023-04-15T09:40:36.569Z,1.50
2023-04-15T09:43:06.292Z,1.10
2023-04-15T09:45:36.009Z,1.00
2023-04-15T09:48:31.505Z,1.70
2023-04-15T09:51:01.669Z,2.30
2023-04-15T09:53:33.096Z,1.80
2023-04-15T09:56:02.686Z,4.50
2023-04-15T09:58:33.833Z,2.30
2023-04-15T10:01:05.261Z,1.50
2023-04-15T10:03:39.187Z,2.00
2023-04-15T10:06:08.324Z,4.80
2023-04-15T10:08:36.560Z,1.60
2023-04-15T10:11:06.175Z,1.00
2023-04-15T10:13:36.536Z,2.30
2023-04-15T10:16:10.985Z,2.60
2023-04-15T10:18:43.939Z,1.40
2023-04-15T10:21:18.994Z,2.00
2023-04-15T10:23:47.817Z,2.10
2023-04-15T10:26:17.682Z,2.90
2023-04-15T10:28:50.097Z,2.10
2023-04-15T10:31:20.240Z,1.80
2023-04-15T10:33:49.551Z,1.10
2023-04-15T10:36:20.346Z,1.60
2023-04-15T10:38:48.776Z,1.90
2023-04-15T10:41:21.060Z,1.80
2023-04-15T10:44:01.649Z,1.20
2023-04-15T10:46:46.013Z,2.40
2023-04-15T10:49:17.184Z,1.50
2023-04-15T10:51:51.371Z,2.30
2023-04-15T10:54:25.898Z,1.20
2023-04-15T10:57:06.729Z,1.70
2023-04-15T11:00:06.952Z,2.40
2023-04-15T11:02:47.691Z,1.30
2023-04-15T11:05:17.831Z,2.10
2023-04-15T11:07:58.955Z,1.30
2023-04-15T11:10:31.112Z,1.30
2023-04-15T11:13:00.668Z,1.60
2023-04-15T11:15:32.613Z,1.80
2023-04-15T11:18:14.077Z,2.40
2023-04-15T11:20:47.433Z,1.90
2023-04-15T11:23:17.085Z,1.60
2023-04-15T11:25:46.304Z,1.90
2023-04-15T11:28:14.538Z,1.60
2023-04-15T11:30:43.693Z,1.10
2023-04-15T11:33:13.931Z,1.70
2023-04-15T11:35:42.764Z,1.30
2023-04-15T11:38:13.210Z,0.80
2023-04-15T11:40:44.567Z,2.60
2023-04-15T11:43:23.060Z,1.80
2023-04-15T11:45:53.467Z,1.10
2023-04-15T11:48:28.074Z,1.50
2023-04-15T11:50:59.402Z,2.20
2023-04-15T11:53:48.303Z,1.20
2023-04-15T11:56:22.060Z,1.70
2023-04-15T11:58:59.449Z,0.80
2023-04-15T12:01:48.141Z,1.70
2023-04-15T12:04:23.490Z,2.10
2023-04-15T12:06:53.633Z,0.90
2023-04-15T12:09:21.962Z,0.60
2023-04-15T12:11:58.577Z,3.60
2023-04-15T12:14:29.238Z,5.90
2023-04-15T12:17:02.354Z,2.20
2023-04-15T12:19:38.987Z,6.20
2023-04-15T12:22:14.133Z,4.20
2023-04-15T12:24:48.670Z,0.80
2023-04-15T12:27:17.877Z,0.70
2023-04-15T12:29:46.160Z,1.10
2023-04-15T12:32:16.460Z,2.30
2023-04-15T12:34:50.947Z,1.00
2023-04-15T12:37:19.645Z,1.20
2023-04-15T12:39:50.637Z,1.10
2023-04-15T12:42:19.306Z,2.80
2023-04-15T12:44:47.577Z,1.50
2023-04-15T12:47:15.975Z,1.30
2023-04-15T12:49:44.260Z,1.40
2023-04-15T12:52:12.732Z,1.60
2023-04-15T12:54:40.859Z,0.80
2023-04-15T12:57:09.184Z,0.70
2023-04-15T12:59:37.774Z,0.60
2023-04-15T13:02:06.185Z,1.40
2023-04-15T13:04:34.669Z,1.40
2023-04-15T13:07:03.202Z,1.10
2023-04-15T13:09:31.486Z,1.00
2023-04-15T13:11:59.748Z,6.60
2023-04-15T13:14:27.860Z,2.40
2023-04-15T13:16:56.530Z,1.80
2023-04-15T13:19:24.647Z,4.10
2023-04-15T13:21:52.893Z,3.10
2023-04-15T13:24:21.033Z,3.10
2023-04-15T13:26:50.403Z,3.30
2023-04-15T13:29:18.973Z,4.20
2023-04-15T13:31:47.298Z,2.90
2023-04-15T13:34:15.799Z,1.90
2023-04-15T13:36:44.079Z,2.20
2023-04-15T13:39:12.228Z,1.60
2023-04-15T13:41:41.148Z,1.10
2023-04-15T13:44:09.666Z,2.20
2023-04-15T13:46:39.754Z,1.40
2023-04-15T13:49:08.033Z,1.60
2023-04-15T13:51:40.677Z,2.00
2023-04-15T13:54:09.193Z,1.20
2023-04-15T13:56:37.748Z,1.20
2023-04-15T13:59:06.884Z,0.80
2023-04-15T14:01:36.144Z,1.30
2023-04-15T14:04:04.760Z,1.40
2023-04-15T14:06:33.553Z,0.90
2023-04-15T14:09:01.715Z,1.20
2023-04-15T14:11:30.220Z,1.00
2023-04-15T14:13:58.493Z,1.40
2023-04-15T14:16:26.925Z,3.00
2023-04-15T14:18:55.353Z,3.10
2023-04-15T14:21:23.776Z,3.60
2023-04-15T14:23:52.010Z,3.30
2023-04-15T14:26:20.684Z,2.50
2023-04-15T14:28:49.021Z,2.00
2023-04-15T14:31:17.344Z,1.60
2023-04-15T14:33:46.517Z,1.90
2023-04-15T14:36:14.743Z,2.70
2023-04-15T14:38:43.214Z,2.90
2023-04-15T14:41:12.347Z,3.20
2023-04-15T14:43:40.589Z,2.20
2023-04-15T14:46:09.359Z,1.50
2023-04-15T14:48:37.995Z,1.90
2023-04-15T14:51:06.961Z,3.80
2023-04-15T14:53:35.169Z,3.30
2023-04-15T14:56:03.723Z,4.10
2023-04-15T14:58:33.543Z,3.60
2023-04-15T15:01:03.097Z,3.60
2023-04-15T15:03:31.820Z,3.00
2023-04-15T15:06:00.163Z,7.70
2023-04-15T15:08:28.597Z,3.80
2023-04-15T15:10:56.984Z,2.70
2023-04-15T15:13:25.880Z,4.80
2023-04-15T15:15:54.183Z,3.90
2023-04-15T15:18:22.557Z,4.40
2023-04-15T15:20:50.851Z,4.90
2023-04-15T15:23:19.393Z,4.00
2023-04-15T15:25:47.984Z,2.80
2023-04-15T15:28:16.358Z,7.10
2023-04-15T15:30:44.420Z,5.10
2023-04-15T15:33:13.019Z,4.20
2023-04-15T15:35:41.500Z,6.60
2023-04-15T15:38:12.043Z,1.60
2023-04-15T15:40:40.517Z,2.40
2023-04-15T15:43:09.049Z,3.70
2023-04-15T15:45:37.487Z,3.00
2023-04-15T15:48:06.606Z,1.20
2023-04-15T15:50:34.906Z,1.30
2023-04-15T15:53:03.147Z,6.80
2023-04-15T15:55:31.357Z,2.80
2023-04-15T15:57:59.588Z,0.70
2023-04-15T16:00:27.871Z,2.50
2023-04-15T16:05:28.855Z,6.20
2023-04-15T16:07:57.162Z,7.60
2023-04-15T16:10:25.594Z,5.90
2023-04-15T16:12:54.769Z,7.50
2023-04-15T16:15:26.221Z,17.70
2023-04-15T16:17:54.903Z,11.40
2023-04-15T16:20:23.606Z,7.80
2023-04-15T16:22:51.795Z,6.60
2023-04-15T16:25:20.569Z,9.40
2023-04-15T16:28:00.762Z,6.40
2023-04-15T16:30:43.862Z,4.70
2023-04-15T16:33:12.067Z,3.10
2023-04-15T16:35:40.142Z,4.80
2023-04-15T16:38:08.389Z,5.00
2023-04-15T16:40:37.816Z,10.20
2023-04-15T16:43:11.434Z,5.40
2023-04-15T16:45:39.801Z,5.10
2023-04-15T16:48:07.961Z,8.20
2023-04-15T16:50:39.098Z,23.60
2023-04-15T16:53:08.129Z,15.40
2023-04-15T16:55:36.380Z,16.80
2023-04-15T16:58:05.986Z,15.50
2023-04-15T17:00:37.283Z,14.10
2023-04-15T17:03:06.374Z,15.70
2023-04-15T17:05:35.222Z,19.40
2023-04-15T17:08:05.454Z,25.20
2023-04-15T17:10:33.821Z,28.80
2023-04-15T17:13:02.026Z,33.80
2023-04-15T17:15:30.907Z,31.70
2023-04-15T17:17:59.347Z,27.90
2023-04-15T17:20:27.855Z,54.30
2023-04-15T17:22:56.561Z,47.40
2023-04-15T17:25:24.865Z,56.30
2023-04-15T17:27:52.925Z,35.70
2023-04-15T17:30:21.683Z,31.40
2023-04-15T17:32:51.684Z,14.30
2023-04-15T17:35:20.502Z,8.00
2023-04-15T17:37:48.772Z,6.00
2023-04-15T17:40:17.157Z,4.80
2023-04-15T17:42:45.532Z,2.90
2023-04-15T17:45:14.666Z,2.30
2023-04-15T17:47:43.055Z,2.30
2023-04-15T17:50:11.536Z,3.40
2023-04-15T17:52:39.776Z,5.20
2023-04-15T17:55:08.678Z,11.40
2023-04-15T17:57:37.161Z,9.80
2023-04-15T18:00:10.346Z,9.30
2023-04-15T18:02:41.825Z,15.10
2023-04-15T18:05:10.708Z,7.80
2023-04-15T18:07:39.100Z,5.80
2023-04-15T18:10:08.533Z,8.40
2023-04-15T18:12:36.951Z,7.30
2023-04-15T18:15:06.453Z,8.50
2023-04-15T18:17:34.679Z,6.90
2023-04-15T18:20:03.739Z,3.70
2023-04-15T18:22:31.910Z,17.20
2023-04-15T18:25:04.341Z,11.80
2023-04-15T18:27:34.449Z,9.60
2023-04-15T18:30:02.666Z,6.40
2023-04-15T18:32:33.019Z,9.30
2023-04-15T18:35:02.131Z,3.60
2023-04-15T18:37:30.716Z,4.20
2023-04-15T18:39:59.586Z,5.20
2023-04-15T18:42:27.820Z,15.70
2023-04-15T18:44:56.179Z,12.90
2023-04-15T18:47:27.286Z,4.60
2023-04-15T18:49:55.828Z,5.80
2023-04-15T18:52:24.357Z,5.90
2023-04-15T18:54:52.849Z,3.70
2023-04-15T18:57:24.482Z,3.00
2023-04-15T19:00:01.517Z,9.30
2023-04-15T19:02:29.821Z,6.70
2023-04-15T19:04:58.371Z,5.10
2023-04-15T19:07:26.826Z,4.40
2023-04-15T19:09:55.103Z,4.00
2023-04-15T19:12:23.444Z,4.60
2023-04-15T19:14:51.762Z,4.00
2023-04-15T19:17:20.207Z,3.10
2023-04-15T19:19:48.422Z,4.20
2023-04-15T19:22:16.968Z,4.50
2023-04-15T19:24:46.314Z,5.50
2023-04-15T19:27:14.793Z,5.70
2023-04-15T19:29:43.110Z,6.50
2023-04-15T19:32:11.456Z,4.70
2023-04-15T19:34:39.831Z,5.10
2023-04-15T19:37:08.319Z,4.50
2023-04-15T19:39:36.883Z,3.70
2023-04-15T19:42:05.587Z,3.30
2023-04-15T19:44:33.872Z,3.20
2023-04-15T19:47:02.193Z,5.60
2023-04-15T19:49:30.762Z,6.30
2023-04-15T19:51:59.008Z,4.70
2023-04-15T19:54:27.288Z,4.50
2023-04-15T19:56:55.873Z,4.20
2023-04-15T19:59:24.536Z,4.50
2023-04-15T20:01:53.427Z,3.60
2023-04-15T20:04:22.753Z,4.00
2023-04-15T20:06:51.108Z,3.90
2023-04-15T20:09:19.326Z,5.40
2023-04-15T20:12:46.793Z,3.40
2023-04-15T20:14:36.350Z,3.00
2023-04-15T20:17:04.539Z,3.00
2023-04-15T20:19:32.611Z,3.90
2023-04-15T20:22:00.921Z,3.70
2023-04-15T20:24:29.250Z,2.90
2023-04-15T20:26:57.833Z,2.90
2023-04-15T20:29:26.565Z,2.10
2023-04-15T20:31:54.801Z,2.10
2023-04-15T20:34:23.120Z,2.30
2023-04-15T20:36:51.467Z,2.20
2023-04-15T20:39:20.045Z,2.00
2023-04-15T20:41:50.061Z,1.80
2023-04-15T20:44:18.350Z,2.20
2023-04-15T20:46:46.875Z,3.20
2023-04-15T20:49:15.106Z,3.80
2023-04-15T20:51:43.587Z,3.90
2023-04-15T20:54:11.867Z,4.00
2023-04-15T20:56:40.246Z,3.70
2023-04-15T20:59:08.591Z,3.10
2023-04-15T21:01:36.845Z,2.70
2023-04-15T21:04:05.137Z,2.60
2023-04-15T21:06:34.648Z,2.30
2023-04-15T21:09:03.352Z,2.90
2023-04-15T21:11:53.375Z,2.30
2023-04-15T21:14:21.459Z,3.50
2023-04-15T21:16:49.679Z,3.90
2023-04-15T21:19:17.896Z,4.00
2023-04-15T21:21:46.379Z,3.30
2023-04-15T21:24:14.653Z,2.80
2023-04-15T21:26:42.832Z,2.90
2023-04-15T21:29:12.177Z,3.70
2023-04-15T21:31:40.998Z,4.00
2023-04-15T21:34:10.132Z,3.20
2023-04-15T21:36:39.224Z,2.90
2023-04-15T21:39:07.838Z,2.00
2023-04-15T21:41:37.340Z,2.60
2023-04-15T21:44:06.003Z,2.50
2023-04-15T21:46:35.574Z,2.60
2023-04-15T21:49:04.501Z,3.80
2023-04-15T21:51:33.494Z,3.40
2023-04-15T21:54:01.830Z,5.00
2023-04-15T21:56:30.159Z,6.80
2023-04-15T21:58:58.979Z,5.60
2023-04-15T22:01:27.530Z,3.90
2023-04-15T22:03:56.462Z,3.10
2023-04-15T22:06:24.940Z,3.20
2023-04-15T22:08:57.403Z,2.90
2023-04-15T22:11:27.857Z,3.30
2023-04-15T22:13:57.909Z,3.10
2023-04-15T22:16:26.852Z,3.00
2023-04-15T22:18:56.156Z,2.70
2023-04-15T22:21:24.525Z,3.10
2023-04-15T22:23:53.197Z,5.40
2023-04-15T22:26:41.389Z,5.90
2023-04-15T22:29:09.818Z,6.70
2023-04-15T22:31:38.996Z,6.80
2023-04-15T22:34:08.223Z,3.60
2023-04-15T22:36:36.576Z,3.60
2023-04-15T22:39:04.867Z,4.00
2023-04-15T22:41:33.232Z,4.40
2023-04-15T22:44:01.740Z,3.60
2023-04-15T22:46:30.344Z,4.40
2023-04-15T22:48:58.537Z,3.50
2023-04-15T22:51:28.151Z,3.60
2023-04-15T22:53:56.598Z,4.10
2023-04-15T22:56:25.018Z,4.40
2023-04-15T22:58:53.452Z,3.20
2023-04-15T23:01:21.742Z,2.80
2023-04-15T23:03:56.793Z,2.60
2023-04-15T23:06:33.360Z,3.10
2023-04-15T23:09:01.519Z,3.80
2023-04-15T23:11:30.448Z,3.40
2023-04-15T23:13:58.588Z,3.40
2023-04-15T23:16:27.538Z,2.90
2023-04-15T23:18:55.779Z,2.30
2023-04-15T23:21:26.044Z,2.70
2023-04-15T23:23:54.718Z,2.50
2023-04-15T23:26:23.480Z,2.90
2023-04-15T23:28:51.737Z,3.30
2023-04-15T23:31:20.119Z,3.30
2023-04-15T23:33:48.805Z,2.10
2023-04-15T23:36:17.244Z,1.90
2023-04-15T23:38:45.468Z,2.20
2023-04-15T23:41:14.053Z,1.80
2023-04-15T23:43:42.333Z,1.80
2023-04-15T23:46:12.080Z,2.20
2023-04-15T23:48:42.009Z,1.90
2023-04-15T23:51:10.459Z,2.10
2023-04-15T23:53:38.720Z,2.10
2023-04-15T23:56:07.626Z,2.10
2023-04-15T23:58:35.988Z,2.00
